Аэропорт: Курск-Восточный . Курск

ICAO: UUOK

METAR:
2020-08-13 11:30:00
UUOK 131130Z 33006MPS 310V010 9999 BKN033CB 19/08 Q1013 R30/CLRD65 NOSIG RMK QFE741/0989
METAR:
Информация по данной станции не доступна